createdAt,value
2023-11-14T00:00:47.140Z,18.07
2023-11-14T00:03:14.075Z,19.03
2023-11-14T00:05:41.251Z,18.87
2023-11-14T00:08:08.721Z,23.90
2023-11-14T00:10:35.673Z,22.87
2023-11-14T00:13:02.584Z,15.43
2023-11-14T00:15:29.464Z,17.03
2023-11-14T00:17:56.451Z,22.50
2023-11-14T00:20:23.345Z,15.53
2023-11-14T00:22:50.206Z,21.57
2023-11-14T00:25:17.040Z,22.10
2023-11-14T00:27:43.891Z,19.73
2023-11-14T00:30:11.429Z,17.43
2023-11-14T00:32:38.489Z,17.93
2023-11-14T00:35:07.027Z,21.53
2023-11-14T00:37:34.367Z,18.67
2023-11-14T00:40:01.273Z,24.73
2023-11-14T00:42:28.209Z,17.80
2023-11-14T00:44:55.028Z,23.17
2023-11-14T00:47:22.048Z,21.67
2023-11-14T00:49:49.081Z,21.67
2023-11-14T00:52:15.939Z,18.60
2023-11-14T00:54:42.929Z,20.40
2023-11-14T00:57:10.153Z,18.60
2023-11-14T00:59:37.379Z,17.40
2023-11-14T01:02:07.196Z,15.77
2023-11-14T01:04:38.522Z,17.07
2023-11-14T01:07:08.633Z,23.90
2023-11-14T01:09:36.144Z,19.33
2023-11-14T01:12:04.108Z,16.70
2023-11-14T01:14:31.184Z,18.40
2023-11-14T01:16:58.150Z,22.13
2023-11-14T01:19:25.050Z,14.07
2023-11-14T01:21:51.993Z,18.60
2023-11-14T01:24:19.422Z,15.03
2023-11-14T01:26:46.898Z,23.23
2023-11-14T01:29:13.761Z,18.97
2023-11-14T01:31:40.653Z,14.93
2023-11-14T01:34:07.589Z,17.20
2023-11-14T01:36:34.501Z,22.23
2023-11-14T01:39:01.362Z,17.60
2023-11-14T01:41:28.200Z,20.90
2023-11-14T01:43:55.158Z,17.47
2023-11-14T01:46:22.795Z,27.60
2023-11-14T01:48:51.528Z,21.40
2023-11-14T01:51:20.813Z,22.53
2023-11-14T01:53:52.618Z,13.63
2023-11-14T01:56:20.892Z,20.37
2023-11-14T01:58:50.805Z,17.10
2023-11-14T02:01:19.232Z,10.60
2023-11-14T02:03:46.488Z,22.30
2023-11-14T02:06:13.450Z,15.17
2023-11-14T02:08:40.795Z,19.10
2023-11-14T02:11:08.735Z,23.87
2023-11-14T02:13:36.125Z,18.03
2023-11-14T02:16:03.388Z,17.20
2023-11-14T02:18:30.384Z,16.97
2023-11-14T02:20:57.325Z,14.13
2023-11-14T02:23:27.307Z,18.17
2023-11-14T02:25:54.664Z,24.20
2023-11-14T02:28:21.607Z,23.77
2023-11-14T02:30:49.020Z,19.03
2023-11-14T02:33:16.691Z,17.53
2023-11-14T02:35:43.898Z,20.43
2023-11-14T02:38:11.082Z,13.57
2023-11-14T02:40:38.469Z,16.77
2023-11-14T02:43:05.558Z,21.67
2023-11-14T02:45:32.439Z,14.63
2023-11-14T02:47:59.276Z,16.43
2023-11-14T02:50:45.188Z,19.83
2023-11-14T02:53:12.012Z,23.87
2023-11-14T02:55:39.266Z,17.27
2023-11-14T02:58:06.089Z,19.13
2023-11-14T03:00:32.942Z,22.60
2023-11-14T03:02:59.816Z,19.97
2023-11-14T03:05:27.650Z,19.93
2023-11-14T03:07:54.806Z,15.00
2023-11-14T03:10:21.740Z,21.17
2023-11-14T03:12:48.607Z,17.30
2023-11-14T03:15:15.500Z,12.70
2023-11-14T03:17:42.998Z,22.40
2023-11-14T03:20:20.408Z,15.40
2023-11-14T03:22:51.835Z,18.43
2023-11-14T03:25:19.172Z,13.67
2023-11-14T03:27:46.540Z,15.90
2023-11-14T03:30:13.573Z,16.07
2023-11-14T03:32:41.016Z,19.30
2023-11-14T03:35:08.387Z,14.50
2023-11-14T03:37:35.529Z,19.00
2023-11-14T03:40:06.024Z,14.83
2023-11-14T03:42:34.448Z,15.53
2023-11-14T03:45:01.651Z,15.13
2023-11-14T03:47:31.142Z,17.77
2023-11-14T03:49:58.332Z,15.30
2023-11-14T03:52:26.718Z,16.83
2023-11-14T03:54:53.920Z,20.00
2023-11-14T03:57:22.579Z,16.03
2023-11-14T03:59:49.552Z,19.30
2023-11-14T04:02:16.556Z,13.23
2023-11-14T04:04:44.153Z,14.93
2023-11-14T04:07:11.625Z,20.33
2023-11-14T04:09:41.669Z,15.80
2023-11-14T04:12:08.852Z,14.87
2023-11-14T04:14:35.871Z,25.63
2023-11-14T04:17:04.650Z,18.80
2023-11-14T04:19:31.693Z,16.73
2023-11-14T04:21:58.853Z,18.20
2023-11-14T04:24:25.673Z,17.37
2023-11-14T04:26:53.089Z,29.30
2023-11-14T04:29:20.080Z,19.13
2023-11-14T04:31:47.155Z,20.23
2023-11-14T04:34:14.512Z,10.43
2023-11-14T04:36:42.426Z,11.80
2023-11-14T04:39:11.987Z,17.77
2023-11-14T04:41:39.111Z,20.77
2023-11-14T04:44:06.674Z,14.53
2023-11-14T04:46:34.573Z,24.90
2023-11-14T04:49:01.877Z,15.40
2023-11-14T04:51:28.777Z,19.03
2023-11-14T04:53:55.570Z,21.50
2023-11-14T04:56:22.519Z,23.00
2023-11-14T04:58:50.564Z,15.60
2023-11-14T05:01:17.446Z,21.37
2023-11-14T05:03:44.358Z,18.97
2023-11-14T05:06:11.381Z,16.47
2023-11-14T05:08:38.241Z,21.83
2023-11-14T05:11:08.687Z,19.97
2023-11-14T05:13:35.651Z,23.57
2023-11-14T05:16:11.321Z,20.77
2023-11-14T05:18:46.578Z,14.67
2023-11-14T05:21:14.553Z,15.27
2023-11-14T05:23:41.389Z,24.53
2023-11-14T05:26:08.729Z,16.30
2023-11-14T05:28:38.412Z,14.20
2023-11-14T05:31:05.376Z,17.23
2023-11-14T05:33:32.469Z,19.67
2023-11-14T05:35:59.352Z,19.13
2023-11-14T05:38:27.146Z,21.07
2023-11-14T05:40:54.198Z,15.80
2023-11-14T05:43:21.565Z,15.63
2023-11-14T05:45:48.434Z,19.30
2023-11-14T05:48:17.452Z,13.97
2023-11-14T05:50:44.462Z,18.63
2023-11-14T05:53:12.046Z,20.97
2023-11-14T05:55:38.949Z,20.93
2023-11-14T05:58:06.044Z,21.20
2023-11-14T06:00:32.883Z,17.83
2023-11-14T06:03:00.367Z,12.03
2023-11-14T06:05:27.183Z,13.10
2023-11-14T06:07:54.065Z,23.77
2023-11-14T06:10:20.888Z,15.63
2023-11-14T06:12:47.735Z,23.03
2023-11-14T06:15:15.034Z,22.00
2023-11-14T06:17:41.898Z,16.73
2023-11-14T06:20:10.969Z,16.77
2023-11-14T06:22:38.193Z,13.23
2023-11-14T06:25:05.676Z,18.93
2023-11-14T06:27:32.503Z,20.63
2023-11-14T06:29:59.302Z,23.80
2023-11-14T06:32:26.983Z,16.77
2023-11-14T06:34:54.612Z,19.00
2023-11-14T06:37:21.552Z,12.70
2023-11-14T06:39:48.436Z,16.43
2023-11-14T06:42:15.393Z,16.57
2023-11-14T06:44:45.658Z,13.23
2023-11-14T06:47:13.549Z,18.00
2023-11-14T06:49:40.893Z,20.40
2023-11-14T06:52:08.025Z,20.37
2023-11-14T06:54:35.135Z,17.10
2023-11-14T06:57:01.985Z,17.70
2023-11-14T06:59:31.125Z,21.07
2023-11-14T07:01:58.795Z,19.70
2023-11-14T07:04:26.752Z,18.10
2023-11-14T07:06:53.636Z,19.50
2023-11-14T07:09:22.894Z,19.37
2023-11-14T07:11:50.523Z,12.57
2023-11-14T07:14:20.386Z,17.30
2023-11-14T07:16:49.342Z,14.20
2023-11-14T07:19:18.284Z,17.50
2023-11-14T07:21:47.343Z,15.10
2023-11-14T07:24:15.302Z,13.07
2023-11-14T07:26:45.257Z,17.10
2023-11-14T07:29:13.827Z,13.73
2023-11-14T07:31:41.180Z,11.33
2023-11-14T07:34:08.909Z,18.50
2023-11-14T07:36:35.985Z,13.40
2023-11-14T07:39:02.916Z,17.43
2023-11-14T07:41:29.855Z,11.40
2023-11-14T07:43:57.002Z,17.40
2023-11-14T07:46:24.080Z,15.43
2023-11-14T07:48:51.637Z,16.20
2023-11-14T07:51:18.532Z,18.80
2023-11-14T07:53:48.538Z,16.43
2023-11-14T07:56:15.649Z,13.33
2023-11-14T07:58:43.192Z,16.93
2023-11-14T08:01:10.554Z,19.23
2023-11-14T08:03:37.796Z,9.60
2023-11-14T08:06:05.276Z,13.57
2023-11-14T08:08:32.215Z,13.97
2023-11-14T08:10:59.234Z,14.43
2023-11-14T08:13:26.092Z,9.17
2023-11-14T08:15:53.012Z,11.47
2023-11-14T08:18:19.911Z,9.87
2023-11-14T08:20:47.018Z,12.13
2023-11-14T08:23:14.120Z,10.90
2023-11-14T08:25:41.159Z,17.73
2023-11-14T08:28:08.485Z,13.77
2023-11-14T08:30:35.357Z,13.90
2023-11-14T08:33:02.673Z,7.43
2023-11-14T08:35:29.572Z,12.27
2023-11-14T08:38:00.665Z,9.77
2023-11-14T08:40:31.972Z,10.83
2023-11-14T08:43:00.249Z,12.73
2023-11-14T08:45:28.521Z,15.03
2023-11-14T08:47:55.490Z,11.57
2023-11-14T08:50:24.439Z,12.93
2023-11-14T08:52:51.457Z,15.43
2023-11-14T08:55:18.701Z,10.87
2023-11-14T08:57:45.519Z,14.20
2023-11-14T09:00:14.292Z,11.27
2023-11-14T09:02:41.409Z,13.03
2023-11-14T09:05:11.653Z,11.97
2023-11-14T09:07:38.976Z,10.97
2023-11-14T09:10:06.735Z,12.17
2023-11-14T09:12:33.831Z,14.03
2023-11-14T09:15:01.222Z,18.27
2023-11-14T09:17:28.283Z,8.63
2023-11-14T09:19:57.187Z,10.47
2023-11-14T09:22:26.455Z,12.50
2023-11-14T09:24:55.142Z,12.27
2023-11-14T09:27:24.615Z,14.10
2023-11-14T09:29:52.940Z,12.77
2023-11-14T09:32:24.728Z,14.00
2023-11-14T09:34:51.740Z,7.67
2023-11-14T09:37:18.565Z,12.53
2023-11-14T09:39:45.453Z,8.53
2023-11-14T09:42:12.975Z,15.10
2023-11-14T09:44:40.591Z,6.40
2023-11-14T09:47:11.052Z,13.43
2023-11-14T09:49:44.701Z,10.87
2023-11-14T09:52:13.042Z,8.77
2023-11-14T09:54:43.281Z,13.77
2023-11-14T09:57:12.555Z,12.03
2023-11-14T09:59:42.913Z,6.60
2023-11-14T10:02:09.938Z,12.83
2023-11-14T10:04:42.422Z,11.10
2023-11-14T10:07:10.054Z,7.73
2023-11-14T10:09:41.032Z,11.70
2023-11-14T10:14:47.241Z,19.27
2023-11-14T10:20:53.014Z,11.00
2023-11-14T10:23:40.188Z,13.23
2023-11-14T10:26:10.361Z,11.07
2023-11-14T10:28:38.868Z,12.60
2023-11-14T10:31:15.902Z,11.23
2023-11-14T10:33:49.254Z,14.90
2023-11-14T10:36:16.303Z,11.43
2023-11-14T10:38:44.281Z,16.30
2023-11-14T10:41:12.656Z,14.30
2023-11-14T10:43:40.754Z,11.47
2023-11-14T10:46:11.723Z,8.93
2023-11-14T10:48:39.263Z,6.70
2023-11-14T10:51:08.114Z,12.17
2023-11-14T10:53:35.454Z,10.40
2023-11-14T10:56:06.421Z,11.60
2023-11-14T10:58:35.501Z,11.93
2023-11-14T11:01:04.230Z,10.77
2023-11-14T11:03:31.945Z,10.53
2023-11-14T11:05:58.901Z,13.80
2023-11-14T11:08:27.002Z,12.57
2023-11-14T11:10:55.479Z,10.80
2023-11-14T11:13:25.091Z,9.93
2023-11-14T11:17:01.421Z,9.87
2023-11-14T11:19:31.683Z,8.53
2023-11-14T11:22:02.539Z,12.07
2023-11-14T11:24:40.321Z,10.93
2023-11-14T11:27:22.467Z,10.10
2023-11-14T11:30:01.062Z,9.13
2023-11-14T11:32:38.858Z,11.83
2023-11-14T11:35:21.901Z,17.23
2023-11-14T11:37:57.449Z,13.70
2023-11-14T11:40:29.493Z,13.03
2023-11-14T11:43:16.060Z,21.93
2023-11-14T11:45:46.405Z,17.70
2023-11-14T11:48:29.828Z,14.20
2023-11-14T11:51:21.299Z,20.37
2023-11-14T11:53:50.458Z,13.73
2023-11-14T11:56:36.016Z,19.73
2023-11-14T11:59:04.859Z,14.27
2023-11-14T12:01:32.700Z,12.57
2023-11-14T12:04:03.962Z,16.80
2023-11-14T12:06:34.010Z,12.37
2023-11-14T12:09:01.261Z,15.60
2023-11-14T12:11:28.989Z,15.00
2023-11-14T12:13:57.326Z,17.53
2023-11-14T12:16:25.116Z,15.73
2023-11-14T12:18:52.466Z,14.30
2023-11-14T12:21:20.392Z,12.10
2023-11-14T12:23:47.858Z,15.50
2023-11-14T12:26:16.254Z,13.17
2023-11-14T12:28:44.742Z,11.43
2023-11-14T12:31:14.251Z,15.83
2023-11-14T12:33:53.602Z,11.43
2023-11-14T12:36:28.130Z,11.37
2023-11-14T12:38:56.084Z,10.73
2023-11-14T12:41:29.578Z,13.40
2023-11-14T12:44:06.319Z,13.67
2023-11-14T12:46:37.736Z,11.20
2023-11-14T12:49:18.962Z,16.30
2023-11-14T12:51:53.713Z,14.40
2023-11-14T12:54:25.629Z,8.90
2023-11-14T12:56:55.549Z,17.00
2023-11-14T12:59:23.469Z,10.77
2023-11-14T13:01:51.240Z,10.50
2023-11-14T13:04:21.798Z,9.00
2023-11-14T13:06:50.676Z,14.07
2023-11-14T13:09:23.605Z,10.63
2023-11-14T13:11:52.505Z,8.83
2023-11-14T13:14:19.690Z,19.97
2023-11-14T13:16:53.385Z,14.77
2023-11-14T13:19:20.825Z,11.87
2023-11-14T13:21:47.863Z,12.07
2023-11-14T13:24:16.216Z,14.40
2023-11-14T13:26:43.471Z,11.07
2023-11-14T13:29:10.736Z,13.67
2023-11-14T13:31:38.699Z,11.30
2023-11-14T13:34:06.052Z,11.30
2023-11-14T13:36:33.704Z,11.30
2023-11-14T13:39:03.937Z,10.50
2023-11-14T13:41:47.372Z,14.93
2023-11-14T13:44:16.436Z,9.03
2023-11-14T13:46:46.202Z,12.00
2023-11-14T13:49:14.435Z,9.03
2023-11-14T13:51:41.529Z,11.03
2023-11-14T13:54:10.650Z,9.53
2023-11-14T13:56:39.331Z,9.90
2023-11-14T13:59:08.216Z,10.30
2023-11-14T14:01:35.392Z,7.17
2023-11-14T14:04:02.611Z,11.13
2023-11-14T14:06:32.221Z,9.50
2023-11-14T14:09:07.406Z,12.70
2023-11-14T14:11:37.813Z,7.53
2023-11-14T14:14:05.292Z,6.67
2023-11-14T14:16:35.028Z,5.93
2023-11-14T14:19:06.378Z,9.47
2023-11-14T14:21:33.709Z,4.67
2023-11-14T14:24:11.423Z,7.63
2023-11-14T14:26:38.700Z,6.50
2023-11-14T14:29:06.006Z,8.50
2023-11-14T14:31:33.837Z,7.80
2023-11-14T14:34:05.755Z,6.17
2023-11-14T14:36:34.896Z,9.70
2023-11-14T14:39:01.812Z,10.93
2023-11-14T14:41:29.868Z,10.70
2023-11-14T14:43:57.810Z,14.60
2023-11-14T14:46:25.242Z,7.20
2023-11-14T14:49:17.617Z,8.00
2023-11-14T14:51:48.060Z,7.30
2023-11-14T14:54:18.733Z,4.10
2023-11-14T14:57:09.396Z,3.77
2023-11-14T14:59:55.311Z,6.80
2023-11-14T15:20:36.193Z,4.50
2023-11-14T15:23:05.858Z,8.23
2023-11-14T15:25:34.174Z,6.97
2023-11-14T15:28:01.110Z,6.67
2023-11-14T15:30:27.980Z,5.00
2023-11-14T15:32:54.872Z,3.27
2023-11-14T15:35:21.966Z,2.83
2023-11-14T15:37:51.572Z,5.23
2023-11-14T15:40:19.436Z,3.37
2023-11-14T15:42:46.831Z,4.77
2023-11-14T15:45:13.912Z,2.63
2023-11-14T15:47:40.958Z,5.37
2023-11-14T15:50:11.254Z,3.50
2023-11-14T15:52:38.101Z,4.27
2023-11-14T15:55:06.523Z,5.40
2023-11-14T15:57:34.086Z,3.30
2023-11-14T16:00:05.402Z,3.17
2023-11-14T16:02:32.835Z,3.80
2023-11-14T16:04:59.937Z,3.60
2023-11-14T16:07:26.927Z,2.77
2023-11-14T16:09:54.077Z,2.80
2023-11-14T16:12:21.353Z,2.50
2023-11-14T16:14:48.298Z,2.57
2023-11-14T16:17:15.158Z,2.80
2023-11-14T16:19:42.130Z,1.70
2023-11-14T16:22:09.074Z,2.17
2023-11-14T16:24:35.949Z,2.43
2023-11-14T16:27:03.701Z,1.23
2023-11-14T16:29:30.645Z,1.10
2023-11-14T16:31:57.576Z,1.20
2023-11-14T16:34:24.510Z,3.73
2023-11-14T16:36:51.368Z,1.33
2023-11-14T16:39:18.368Z,1.60
2023-11-14T16:41:45.512Z,1.17
2023-11-14T16:44:12.543Z,1.17
2023-11-14T16:46:40.135Z,1.73
2023-11-14T16:49:08.030Z,0.80
2023-11-14T16:51:35.218Z,1.53
2023-11-14T16:54:03.121Z,5.27
2023-11-14T16:56:30.751Z,1.10
2023-11-14T16:59:07.806Z,3.33
2023-11-14T17:01:36.101Z,1.30
2023-11-14T17:04:39.911Z,2.03
2023-11-14T17:07:53.777Z,4.43
2023-11-14T17:10:25.741Z,1.23
2023-11-14T17:12:54.005Z,1.70
2023-11-14T17:15:21.266Z,1.10
2023-11-14T17:17:48.571Z,1.80
2023-11-14T17:20:15.694Z,1.63
2023-11-14T17:22:43.355Z,1.13
2023-11-14T17:25:13.226Z,1.50
2023-11-14T17:27:40.475Z,1.90
2023-11-14T17:30:08.624Z,0.93
2023-11-14T17:32:36.016Z,2.53
2023-11-14T17:35:06.979Z,0.90
2023-11-14T17:37:34.289Z,1.30
2023-11-14T17:40:01.442Z,1.00
2023-11-14T17:42:32.023Z,3.40
2023-11-14T17:44:59.395Z,0.80
2023-11-14T17:47:26.657Z,1.13
2023-11-14T17:49:58.123Z,1.20
2023-11-14T17:52:26.198Z,0.83
2023-11-14T17:54:53.429Z,2.63
2023-11-14T17:57:26.016Z,2.30
2023-11-14T17:59:55.724Z,1.47
2023-11-14T18:02:27.833Z,2.27
2023-11-14T18:05:16.905Z,2.03
2023-11-14T18:07:47.417Z,3.43
2023-11-14T18:10:17.868Z,2.33
2023-11-14T18:12:50.747Z,1.00
2023-11-14T18:15:19.224Z,1.00
2023-11-14T18:17:47.041Z,1.90
2023-11-14T18:20:14.394Z,2.00
2023-11-14T18:22:43.061Z,1.63
2023-11-14T18:25:12.690Z,1.10
2023-11-14T18:27:42.807Z,2.63
2023-11-14T18:30:42.771Z,1.57
2023-11-14T18:34:03.132Z,2.30
2023-11-14T18:39:26.934Z,2.40
2023-11-14T18:41:56.734Z,3.83
2023-11-14T18:44:24.562Z,2.30
2023-11-14T18:46:51.603Z,2.90
2023-11-14T18:49:19.132Z,2.03
2023-11-14T18:51:46.146Z,2.83
2023-11-14T18:54:13.739Z,5.73
2023-11-14T18:56:40.747Z,3.53
2023-11-14T18:59:19.151Z,2.80
2023-11-14T19:01:59.361Z,1.83
2023-11-14T19:04:35.675Z,4.00
2023-11-14T19:07:10.526Z,1.20
2023-11-14T19:14:10.660Z,1.73
2023-11-14T19:17:06.551Z,1.27
2023-11-14T19:19:37.109Z,1.90
2023-11-14T19:22:26.908Z,2.30
2023-11-14T19:25:01.969Z,1.73
2023-11-14T19:27:32.370Z,3.67
2023-11-14T19:29:59.724Z,7.50
2023-11-14T19:32:32.565Z,2.20
2023-11-14T19:35:05.426Z,1.93
2023-11-14T19:37:35.314Z,3.93
2023-11-14T19:40:13.467Z,1.17
2023-11-14T19:42:40.603Z,3.33
2023-11-14T19:45:08.323Z,2.30
2023-11-14T19:47:38.009Z,3.73
2023-11-14T19:50:05.864Z,2.97
2023-11-14T19:52:35.657Z,3.10
2023-11-14T19:55:03.768Z,2.67
2023-11-14T19:57:34.316Z,3.33
2023-11-14T20:00:15.483Z,3.57
2023-11-14T20:02:45.554Z,2.53
2023-11-14T20:05:21.288Z,4.87
2023-11-14T20:08:18.820Z,4.23
2023-11-14T20:14:25.984Z,2.93
2023-11-14T20:16:58.063Z,4.27
2023-11-14T20:19:25.660Z,3.30
2023-11-14T20:21:58.468Z,3.57
2023-11-14T20:24:48.933Z,2.73
2023-11-14T20:36:06.020Z,2.70
2023-11-14T20:38:34.344Z,3.97
2023-11-14T20:41:01.268Z,2.43
2023-11-14T20:43:28.849Z,3.77
2023-11-14T20:45:56.497Z,3.37
2023-11-14T20:48:24.846Z,2.67
2023-11-14T20:56:21.281Z,2.13
2023-11-14T20:58:48.929Z,5.90
2023-11-14T21:01:26.763Z,3.27
2023-11-14T21:03:54.671Z,6.43
2023-11-14T21:06:22.221Z,4.87
2023-11-14T21:08:49.913Z,4.27
2023-11-14T21:11:17.267Z,4.17
2023-11-14T21:13:45.535Z,8.30
2023-11-14T21:16:12.957Z,5.43
2023-11-14T21:18:42.367Z,4.90
2023-11-14T21:21:10.700Z,6.47
2023-11-14T21:23:40.086Z,5.00
2023-11-14T21:26:09.867Z,4.03
2023-11-14T21:28:38.045Z,4.37
2023-11-14T21:31:08.593Z,5.60
2023-11-14T21:33:40.113Z,8.30
2023-11-14T21:36:13.030Z,6.23
2023-11-14T21:38:40.316Z,8.23
2023-11-14T21:41:08.359Z,5.00
2023-11-14T21:43:35.949Z,3.87
2023-11-14T21:46:03.750Z,6.80
2023-11-14T21:48:30.954Z,5.63
2023-11-14T21:51:03.464Z,5.20
2023-11-14T21:53:34.228Z,6.37
2023-11-14T21:56:05.972Z,6.73
2023-11-14T21:59:12.721Z,3.80
2023-11-14T22:01:58.417Z,4.77
2023-11-14T22:04:59.717Z,7.73
2023-11-14T22:07:46.023Z,3.80
2023-11-14T22:10:18.998Z,3.07
2023-11-14T22:21:48.444Z,6.93
2023-11-14T22:24:21.916Z,6.17
2023-11-14T22:27:30.086Z,9.37
2023-11-14T22:30:02.580Z,4.73
2023-11-14T22:32:30.136Z,8.93
2023-11-14T22:35:02.435Z,7.97
2023-11-14T22:37:30.329Z,4.73
2023-11-14T22:40:07.041Z,8.27
2023-11-14T22:42:34.702Z,10.60
2023-11-14T22:45:02.456Z,4.83
2023-11-14T22:47:36.459Z,11.47
2023-11-14T22:50:09.470Z,5.33
2023-11-14T22:52:40.043Z,4.07
2023-11-14T22:55:12.085Z,5.50
2023-11-14T22:57:39.356Z,5.87
2023-11-14T23:00:29.718Z,3.90
2023-11-14T23:05:42.495Z,7.27
2023-11-14T23:08:12.641Z,6.20
2023-11-14T23:10:42.924Z,5.43
2023-11-14T23:13:10.651Z,5.73
2023-11-14T23:20:49.786Z,5.37
2023-11-14T23:23:35.860Z,5.20
2023-11-14T23:26:16.039Z,8.97
2023-11-14T23:28:45.158Z,14.23
2023-11-14T23:31:20.851Z,7.00
2023-11-14T23:33:48.270Z,6.03
2023-11-14T23:36:16.024Z,6.27
2023-11-14T23:38:52.072Z,5.37
2023-11-14T23:41:20.652Z,9.80
2023-11-14T23:43:49.313Z,7.83
2023-11-14T23:46:25.045Z,11.10
2023-11-14T23:48:52.472Z,7.90
2023-11-14T23:51:22.065Z,10.73
2023-11-14T23:53:51.568Z,8.57
2023-11-14T23:56:21.068Z,10.17
2023-11-14T23:58:48.233Z,11.87
